Time;durP1;ratioP1;P1;durP2;ratioP2;P2;SDS_P1;SDS_P2;PMS_P1;PMS_P2;Temp;Humidity;BMP_temperature;BMP_pressure;BME280_temperature;BME280_humidity;BME280_pressure;Samples;Min_cycle;Max_cycle;Signal;HPM_P1;HPM_P2
2022/01/24 00:01:57;;;;;;;;;60.00;45.00;;;;;4.98;64.25;102928.78;6277411;22;48091;-86
2022/01/24 00:04:24;;;;;;;;;56.75;42.50;;;;;5.13;64.18;102960.03;6280561;22;45465;-86
2022/01/24 00:06:52;;;;;;;;;55.25;42.25;;;;;5.00;64.08;102931.50;6307572;22;45505;-88
2022/01/24 00:09:19;;;;;;;;;48.00;38.00;;;;;5.11;64.34;102956.47;6307065;22;45717;-86
2022/01/24 00:12:00;;;;;;;;;56.25;44.75;;;;;5.10;64.32;102957.25;6303650;22;47218;-87
2022/01/24 00:17:19;;;;;;;;;47.75;40.75;;;;;5.02;64.93;102937.69;6307860;22;45338;-85
2022/01/24 00:27:56;;;;;;;;;51.75;40.75;;;;;4.90;64.79;102924.88;6309941;22;45696;-84
2022/01/24 00:30:22;;;;;;;;;49.50;40.50;;;;;4.91;64.60;102930.97;6284364;22;45257;-86
2022/01/24 00:32:47;;;;;;;;;45.00;37.75;;;;;4.89;64.89;102923.06;6314576;22;46098;-91
2022/01/24 00:35:15;;;;;;;;;34.75;30.00;;;;;4.79;64.79;102920.78;6285028;22;45331;-87
2022/01/24 00:37:41;;;;;;;;;48.00;39.00;;;;;4.84;64.73;102932.38;6286671;22;45513;-87
2022/01/24 00:40:07;;;;;;;;;45.75;39.75;;;;;4.80;65.19;102928.69;6284965;22;45142;-86
2022/01/24 00:42:51;;;;;;;;;45.75;38.25;;;;;4.67;64.96;102907.94;6313353;22;47154;-86
2022/01/24 00:55:28;;;;;;;;;41.75;33.75;;;;;4.65;65.45;102909.56;6284143;22;45384;-85
2022/01/24 00:57:53;;;;;;;;;40.00;35.25;;;;;4.67;65.39;102915.75;6283087;22;45268;-87
2022/01/24 01:00:19;;;;;;;;;42.00;33.75;;;;;4.68;65.29;102914.03;6312720;22;45346;-86
2022/01/24 01:02:44;;;;;;;;;44.25;35.75;;;;;4.54;65.43;102887.19;6282980;22;47085;-86
2022/01/24 01:05:32;;;;;;;;;35.75;33.50;;;;;4.62;65.18;102909.38;6280812;22;45309;-85
2022/01/24 01:18:04;;;;;;;;;47.75;37.25;;;;;4.63;65.90;102916.41;6308791;22;45353;-87
2022/01/24 01:19:06;;;;;;;;;42.75;36.75;;;;;4.50;65.68;102913.94;6310872;22;45413;-87
2022/01/24 01:21:32;;;;;;;;;44.25;34.25;;;;;4.39;65.87;102902.91;6283760;22;45532;-86
2022/01/24 01:24:01;;;;;;;;;37.50;34.75;;;;;4.40;66.08;102899.47;6281088;22;46792;-86
2022/01/24 01:29:08;;;;;;;;;43.75;36.75;;;;;4.38;65.81;102891.59;6308865;22;45407;-87
2022/01/24 01:32:01;;;;;;;;;37.00;32.25;;;;;4.46;66.30;102915.47;6308531;22;45475;-87
2022/01/24 01:53:44;;;;;;;;;50.50;36.00;;;;;4.39;66.24;102921.16;6310059;22;45366;-87
2022/01/24 01:56:07;;;;;;;;;47.75;37.75;;;;;4.34;66.67;102905.25;6310981;22;46338;-87
2022/01/24 01:58:32;;;;;;;;;47.00;37.50;;;;;4.27;66.47;102895.28;6282327;22;45274;-86
2022/01/24 02:01:00;;;;;;;;;47.25;39.25;;;;;4.36;66.59;102908.84;6309930;22;45199;-86
2022/01/24 02:03:30;;;;;;;;;42.50;35.50;;;;;4.28;66.17;102896.19;6282887;22;45402;-86
2022/01/24 02:05:56;;;;;;;;;48.75;37.25;;;;;4.39;66.25;102921.16;6308690;22;47217;-86
2022/01/24 02:08:30;;;;;;;;;42.75;36.75;;;;;4.38;66.39;102924.56;6308582;22;46119;-85
2022/01/24 02:10:58;;;;;;;;;39.75;36.75;;;;;4.34;66.40;102912.19;6310106;22;45465;-85
2022/01/24 02:13:27;;;;;;;;;46.50;35.50;;;;;4.26;66.40;102905.63;6310826;22;45245;-86
2022/01/24 02:16:05;;;;;;;;;47.00;36.00;;;;;4.28;66.23;102912.72;6284493;22;47501;-86
2022/01/24 02:18:45;;;;;;;;;51.50;43.00;;;;;4.20;66.31;102887.94;6313777;22;45297;-86
2022/01/24 02:21:42;;;;;;;;;42.75;35.50;;;;;4.24;66.55;102889.88;6283235;22;45182;-85
2022/01/24 02:24:11;;;;;;;;;49.50;37.00;;;;;4.24;66.47;102892.50;6313925;22;45267;-87
2022/01/24 02:26:39;;;;;;;;;39.75;31.25;;;;;4.33;66.39;102895.63;6284564;22;48221;-86
2022/01/24 02:29:24;;;;;;;;;36.25;32.50;;;;;4.18;66.35;102880.00;6314710;22;45399;-86
2022/01/24 02:31:54;;;;;;;;;31.00;25.25;;;;;4.30;66.67;102898.03;6288132;22;45178;-85
2022/01/24 02:34:32;;;;;;;;;48.75;37.75;;;;;4.31;66.65;102898.97;6286100;22;45358;-87
2022/01/24 02:37:01;;;;;;;;;42.00;34.25;;;;;4.23;66.63;102884.59;6284286;22;47795;-85
2022/01/24 02:39:44;;;;;;;;;43.25;33.00;;;;;4.19;66.48;102875.69;6284595;22;45256;-86
2022/01/24 02:53:06;;;;;;;;;47.25;42.00;;;;;4.19;66.36;102870.47;6310852;22;45231;-86
2022/01/24 02:55:32;;;;;;;;;37.00;33.50;;;;;4.19;66.20;102873.97;6285470;22;45480;-85
2022/01/24 02:58:02;;;;;;;;;40.25;31.00;;;;;4.17;66.22;102865.19;6286565;22;46901;-86
2022/01/24 03:00:28;;;;;;;;;40.75;36.25;;;;;4.09;66.40;102855.13;6312786;22;45376;-86
2022/01/24 03:02:58;;;;;;;;;34.25;29.25;;;;;4.05;66.21;102851.47;6314300;22;45409;-86
2022/01/24 03:05:29;;;;;;;;;41.25;32.25;;;;;4.02;65.98;102842.56;6311614;22;45172;-86
2022/01/24 03:08:00;;;;;;;;;33.00;25.00;;;;;4.21;66.61;102884.50;6285295;22;47441;-86
2022/01/24 03:10:35;;;;;;;;;42.50;32.50;;;;;4.15;66.01;102873.75;6284309;22;45256;-84
2022/01/24 03:15:53;;;;;;;;;50.50;39.25;;;;;4.20;66.26;102878.41;6313286;22;45149;-85
2022/01/24 03:18:22;;;;;;;;;40.50;35.00;;;;;4.17;66.69;102869.47;6312299;22;45224;-85
2022/01/24 03:20:48;;;;;;;;;40.25;32.50;;;;;4.19;66.02;102873.97;6314115;22;45192;-85
2022/01/24 03:23:16;;;;;;;;;42.25;34.75;;;;;4.19;66.17;102871.38;6309230;22;45343;-86
2022/01/24 03:25:42;;;;;;;;;42.50;32.75;;;;;4.14;66.25;102859.81;6312974;22;45405;-85
2022/01/24 03:28:16;;;;;;;;;38.25;32.25;;;;;4.02;66.18;102838.25;6283169;22;47491;-87
2022/01/24 03:30:42;;;;;;;;;44.00;31.25;;;;;4.16;66.37;102863.38;6311065;22;45365;-85
2022/01/24 03:33:12;;;;;;;;;39.25;35.00;;;;;4.16;65.92;102860.78;6283420;22;45306;-86
2022/01/24 03:35:40;;;;;;;;;41.50;36.50;;;;;3.98;66.26;102831.06;6313627;22;45334;-86
2022/01/24 03:38:08;;;;;;;;;32.75;29.25;;;;;4.12;66.39;102858.81;6310910;22;45326;-85
2022/01/24 03:40:38;;;;;;;;;39.75;33.25;;;;;4.08;66.54;102843.81;6285607;22;45272;-86
2022/01/24 03:43:04;;;;;;;;;37.50;31.50;;;;;4.08;66.46;102846.41;6311486;22;45271;-87
2022/01/24 03:45:48;;;;;;;;;43.25;37.25;;;;;4.01;66.32;102846.91;6313830;22;45605;-85
2022/01/24 03:48:36;;;;;;;;;41.00;33.75;;;;;4.01;66.61;102841.69;6311399;22;45585;-86
2022/01/24 03:51:04;;;;;;;;;35.50;32.75;;;;;4.01;66.81;102841.69;6311401;22;45400;-86
2022/01/24 03:53:42;;;;;;;;;44.75;38.75;;;;;3.89;66.64;102826.22;6284539;22;45214;-87
2022/01/24 03:56:18;;;;;;;;;37.00;35.00;;;;;3.95;66.30;102842.19;6284486;22;45883;-86
2022/01/24 03:58:45;;;;;;;;;47.75;35.50;;;;;4.01;66.40;102859.94;6310294;22;47193;-86
2022/01/24 04:01:10;;;;;;;;;36.00;25.50;;;;;3.95;66.77;102847.41;6311381;22;45288;-86
2022/01/24 04:03:37;;;;;;;;;35.25;31.00;;;;;3.94;66.88;102848.22;6285893;22;45299;-86
2022/01/24 04:06:06;;;;;;;;;35.25;33.00;;;;;3.93;66.34;102838.63;6312430;22;45339;-85
2022/01/24 04:08:31;;;;;;;;;42.75;38.00;;;;;3.85;66.59;102836.38;6311098;22;47147;-85
2022/01/24 04:11:01;;;;;;;;;44.00;38.25;;;;;3.78;66.99;102822.13;6311511;22;45232;-86
2022/01/24 04:21:25;;;;;;;;;42.50;36.75;;;;;3.76;66.57;102818.53;6311532;22;45396;-86
2022/01/24 04:26:32;;;;;;;;;40.00;34.00;;;;;3.86;66.55;102839.09;6307193;22;45241;-87
2022/01/24 04:29:02;;;;;;;;;50.00;38.50;;;;;3.85;66.87;102832.09;6310777;22;48068;-86
2022/01/24 04:31:28;;;;;;;;;32.25;30.75;;;;;3.86;66.91;102832.97;6308486;22;45278;-85
2022/01/24 04:33:56;;;;;;;;;38.75;31.75;;;;;3.74;67.15;102827.94;6313490;22;45291;-83
2022/01/24 04:36:22;;;;;;;;;38.75;35.00;;;;;3.72;66.71;102821.78;6308979;22;45396;-86
2022/01/24 04:38:51;;;;;;;;;38.50;34.75;;;;;3.66;66.91;102819.72;6311224;22;46990;-84
2022/01/24 04:41:21;;;;;;;;;40.25;33.00;;;;;3.63;66.55;102819.50;6311126;22;45254;-85
2022/01/24 04:43:59;;;;;;;;;47.00;39.75;;;;;3.82;66.88;102844.03;6284608;22;45358;-86
2022/01/24 04:54:44;;;;;;;;;39.75;37.00;;;;;3.72;66.73;102835.69;6311312;22;45335;-86
2022/01/24 04:57:13;;;;;;;;;36.25;34.25;;;;;3.79;66.81;102844.75;6311776;22;45397;-87
2022/01/24 04:59:47;;;;;;;;;42.75;34.00;;;;;3.78;67.02;102842.97;6282858;22;47633;-86
2022/01/24 05:02:14;;;;;;;;;43.25;33.75;;;;;3.69;66.96;102827.69;6311267;22;45866;-87
2022/01/24 05:04:40;;;;;;;;;41.25;36.00;;;;;3.68;67.17;102833.69;6308189;22;45139;-85
2022/01/24 05:07:06;;;;;;;;;38.50;30.75;;;;;3.75;67.06;102851.50;6285154;22;45287;-86
2022/01/24 05:09:40;;;;;;;;;46.75;36.75;;;;;3.72;67.40;102835.69;6308516;22;47021;-86
2022/01/24 05:12:28;;;;;;;;;35.25;30.50;;;;;3.74;66.70;102843.56;6309597;22;45206;-86
2022/01/24 05:25:53;;;;;;;;;49.00;38.00;;;;;3.60;67.31;102827.16;6314741;22;45176;-85
2022/01/24 05:28:19;;;;;;;;;38.00;35.50;;;;;3.62;66.84;102827.25;6284909;22;45422;-85
2022/01/24 05:30:45;;;;;;;;;36.50;34.00;;;;;3.63;67.31;102821.22;6314111;22;45282;-87
2022/01/24 05:33:19;;;;;;;;;41.00;35.25;;;;;3.69;66.94;102842.44;6312610;22;45264;-86
2022/01/24 05:35:44;;;;;;;;;38.50;34.50;;;;;3.57;67.00;102823.47;6284383;22;45344;-86
2022/01/24 05:38:12;;;;;;;;;44.50;36.00;;;;;3.62;66.82;102830.75;6282853;22;45891;-87
2022/01/24 05:40:38;;;;;;;;;36.25;30.00;;;;;3.64;66.84;102836.06;6285025;22;47024;-85
2022/01/24 05:43:04;;;;;;;;;42.00;35.25;;;;;3.57;67.25;102823.47;6308037;22;45878;-86
2022/01/24 05:45:29;;;;;;;;;41.25;35.00;;;;;3.51;67.51;102818.81;6283864;22;45176;-87
2022/01/24 05:47:58;;;;;;;;;37.50;35.25;;;;;3.63;67.34;102831.63;6310425;22;45497;-86
2022/01/24 05:50:23;;;;;;;;;43.25;36.50;;;;;3.58;67.18;102828.75;6284139;22;47920;-86
2022/01/24 05:52:51;;;;;;;;;35.50;30.25;;;;;3.62;67.20;102832.47;6282191;22;45350;-86
2022/01/24 05:55:16;;;;;;;;;34.75;29.75;;;;;3.50;67.19;102822.19;6284969;22;45397;-86
2022/01/24 05:57:45;;;;;;;;;41.25;34.50;;;;;3.60;66.94;102827.16;6311679;22;45741;-85
2022/01/24 06:00:12;;;;;;;;;46.75;39.25;;;;;3.53;67.29;102817.22;6285918;22;46131;-86
2022/01/24 06:02:39;;;;;;;;;37.25;35.75;;;;;3.57;67.20;102823.47;6311052;22;45149;-85
2022/01/24 06:05:10;;;;;;;;;43.00;36.75;;;;;3.57;67.60;102821.75;6312682;22;45265;-87
2022/01/24 06:07:36;;;;;;;;;41.00;35.50;;;;;3.47;67.75;102814.22;6309028;22;45243;-84
2022/01/24 06:10:01;;;;;;;;;54.00;39.75;;;;;3.51;67.19;102824.91;6310238;22;46430;-83
2022/01/24 06:12:27;;;;;;;;;43.25;33.75;;;;;3.54;67.37;102830.28;6281118;22;45188;-85
2022/01/24 06:14:55;;;;;;;;;42.50;34.50;;;;;3.48;67.23;102827.34;6281180;22;45217;-85
2022/01/24 06:17:26;;;;;;;;;43.50;39.75;;;;;3.46;67.09;102820.25;6282594;22;45470;-85
2022/01/24 06:19:59;;;;;;;;;52.75;41.75;;;;;3.53;67.80;102841.53;6281223;22;48079;-84
2022/01/24 06:22:26;;;;;;;;;39.00;37.00;;;;;3.48;67.58;102839.47;6309750;22;45143;-84
2022/01/24 06:24:59;;;;;;;;;41.25;37.25;;;;;3.37;67.92;102823.22;6309955;22;45339;-84
2022/01/24 06:27:27;;;;;;;;;43.75;39.25;;;;;3.44;67.50;102832.28;6308833;22;45276;-83
2022/01/24 06:29:54;;;;;;;;;49.00;37.50;;;;;3.43;67.48;102833.09;6307643;22;48421;-84
2022/01/24 06:32:25;;;;;;;;;45.00;38.00;;;;;3.50;67.49;102850.84;6308619;22;45322;-84
2022/01/24 06:34:50;;;;;;;;;43.00;36.00;;;;;3.49;67.73;102856.88;6311839;22;45196;-84
2022/01/24 06:37:16;;;;;;;;;45.00;40.00;;;;;3.48;67.85;102858.59;6280694;22;45695;-84
2022/01/24 06:39:41;;;;;;;;;41.75;34.00;;;;;3.41;67.78;102840.78;6281811;22;48137;-85
2022/01/24 06:42:14;;;;;;;;;47.50;36.00;;;;;3.46;67.53;102860.19;6309034;22;45151;-84
2022/01/24 06:44:41;;;;;;;;;48.50;39.50;;;;;3.34;67.67;102828.22;6309135;22;45224;-83
2022/01/24 06:47:10;;;;;;;;;45.00;40.00;;;;;3.37;67.58;102837.91;6309295;22;45158;-85
2022/01/24 06:49:43;;;;;;;;;44.50;39.00;;;;;3.35;67.85;102844.75;6306879;22;46784;-85
2022/01/24 06:52:08;;;;;;;;;47.25;38.50;;;;;3.29;67.35;102825.34;6283398;22;45466;-87
2022/01/24 06:54:39;;;;;;;;;53.50;36.00;;;;;3.43;67.70;102860.03;6309213;22;45383;-84
2022/01/24 06:57:05;;;;;;;;;49.50;34.75;;;;;3.40;67.91;102848.53;6283262;22;45383;-88
2022/01/24 06:59:33;;;;;;;;;41.00;36.75;;;;;3.41;67.86;102847.72;6313387;22;46291;-89
2022/01/24 07:01:58;;;;;;;;;41.50;37.50;;;;;3.40;67.94;102848.53;6286962;22;45361;-87
2022/01/24 07:04:26;;;;;;;;;44.50;39.75;;;;;3.36;68.41;102844.81;6316576;22;45337;-86
2022/01/24 07:06:56;;;;;;;;;43.75;36.75;;;;;3.33;68.32;102830.75;6285358;22;45396;-89
2022/01/24 07:09:25;;;;;;;;;42.25;38.00;;;;;3.47;68.17;102866.28;6312117;22;45473;-88
2022/01/24 07:11:51;;;;;;;;;43.00;38.00;;;;;3.41;67.60;102850.31;6286391;22;45398;-90
2022/01/24 07:14:17;;;;;;;;;49.00;38.25;;;;;3.28;67.92;102833.94;6310625;22;45354;-88
2022/01/24 07:17:05;;;;;;;;;53.75;41.00;;;;;3.38;68.00;102850.13;6314338;22;45425;-88
2022/01/24 07:19:38;;;;;;;;;41.25;35.75;;;;;3.30;67.76;102839.25;6281381;22;48033;-88
2022/01/24 07:22:13;;;;;;;;;50.25;42.00;;;;;3.42;67.96;102857.31;6315784;22;45126;-90
2022/01/24 07:24:50;;;;;;;;;42.25;33.75;;;;;3.37;67.65;102857.06;6282999;22;45219;-88
2022/01/24 07:27:16;;;;;;;;;51.25;38.00;;;;;3.50;68.18;102880.41;6313020;22;45373;-88
2022/01/24 07:29:41;;;;;;;;;49.50;38.75;;;;;3.36;68.46;102847.44;6311158;22;46020;-89
2022/01/24 07:32:13;;;;;;;;;47.00;40.50;;;;;3.46;68.02;102856.69;6288305;22;45157;-89
2022/01/24 07:34:38;;;;;;;;;45.50;40.00;;;;;3.33;68.11;102825.53;6286329;22;45152;-89
2022/01/24 07:37:08;;;;;;;;;51.25;40.00;;;;;3.45;67.42;102852.31;6288553;22;45286;-91
2022/01/24 07:39:36;;;;;;;;;48.25;40.00;;;;;3.43;67.80;102857.41;6285616;22;48216;-90
2022/01/24 07:42:15;;;;;;;;;45.75;39.75;;;;;3.43;67.53;102853.91;6290047;22;45247;-89
2022/01/24 07:44:41;;;;;;;;;39.25;33.25;;;;;3.24;67.81;102832.00;6295722;22;45173;-89
2022/01/24 07:47:11;;;;;;;;;56.50;38.75;;;;;3.38;67.73;102853.63;6325206;22;45627;-90
2022/01/24 07:49:39;;;;;;;;;43.50;40.50;;;;;3.25;68.01;102840.69;6295082;22;47205;-89
2022/01/24 07:52:09;;;;;;;;;53.50;40.00;;;;;3.44;67.59;102873.94;6324396;22;45232;-88
2022/01/24 07:54:35;;;;;;;;;42.75;37.50;;;;;3.23;67.99;102821.47;6323948;22;44749;-90
2022/01/24 07:57:01;;;;;;;;;48.50;39.50;;;;;3.49;67.78;102875.09;6323843;22;45581;-90
2022/01/24 07:59:29;;;;;;;;;41.75;36.00;;;;;3.43;67.52;102865.22;6286915;22;46768;-87
2022/01/24 08:01:54;;;;;;;;;40.50;33.50;;;;;3.51;68.03;102879.59;6312688;22;44613;-84
2022/01/24 08:04:20;;;;;;;;;44.25;39.25;;;;;3.37;68.14;102849.25;6311519;22;45220;-85
2022/01/24 08:06:49;;;;;;;;;49.50;38.50;;;;;3.56;67.53;102885.09;6284275;22;45196;-86
2022/01/24 08:09:17;;;;;;;;;48.00;42.00;;;;;3.49;67.90;102862.97;6311955;22;45466;-86
2022/01/24 08:11:43;;;;;;;;;52.00;42.25;;;;;3.44;67.49;102859.19;6313953;22;45282;-85
2022/01/24 08:14:08;;;;;;;;;52.25;39.75;;;;;3.40;68.12;102840.72;6310116;22;45245;-84
2022/01/24 08:16:35;;;;;;;;;49.00;39.75;;;;;3.59;67.73;102871.34;6310973;22;45480;-87
2022/01/24 08:19:05;;;;;;;;;42.25;40.00;;;;;3.41;67.73;102839.91;6314218;22;47506;-86
2022/01/24 08:21:30;;;;;;;;;43.25;37.75;;;;;3.56;67.55;102871.19;6315788;22;45295;-86
2022/01/24 08:24:05;;;;;;;;;40.75;37.50;;;;;3.58;68.13;102875.63;6285528;22;45399;-87
2022/01/24 08:26:40;;;;;;;;;41.75;38.75;;;;;3.59;67.83;102879.16;6293873;22;45280;-88
2022/01/24 08:29:15;;;;;;;;;37.75;37.25;;;;;3.46;67.71;102857.59;6282633;22;46938;-88
2022/01/24 08:31:46;;;;;;;;;45.25;36.75;;;;;3.70;68.12;102892.00;6313492;22;45307;-86
2022/01/24 08:34:12;;;;;;;;;51.25;39.00;;;;;3.55;68.12;102859.84;6283661;22;45200;-86
2022/01/24 08:36:42;;;;;;;;;42.75;40.00;;;;;3.58;67.82;102865.22;6309973;22;45274;-88
2022/01/24 08:39:15;;;;;;;;;34.75;30.25;;;;;3.57;67.76;102862.53;6311860;22;48318;-87
2022/01/24 08:42:01;;;;;;;;;46.75;38.75;;;;;3.68;67.83;102891.00;6281973;22;45427;-88
2022/01/24 08:47:05;;;;;;;;;44.00;35.75;;;;;3.67;67.73;102872.69;6310205;22;45054;-89
2022/01/24 08:49:31;;;;;;;;;46.25;37.25;;;;;3.60;67.94;102858.41;6283372;22;47058;-87
2022/01/24 08:51:58;;;;;;;;;48.00;39.50;;;;;3.80;67.86;102892.56;6312354;22;45159;-89
2022/01/24 08:54:27;;;;;;;;;48.50;39.75;;;;;3.87;67.82;102892.09;6310595;22;45295;-88
2022/01/24 08:56:53;;;;;;;;;45.75;39.00;;;;;3.91;67.92;102899.28;6285437;22;45384;-89
2022/01/24 08:59:25;;;;;;;;;48.50;40.25;;;;;3.85;67.87;102888.47;6311320;22;47030;-86
2022/01/24 09:01:52;;;;;;;;;54.50;43.00;;;;;3.87;67.74;102885.16;6312901;22;45286;-90
2022/01/24 09:04:29;;;;;;;;;46.50;38.50;;;;;3.80;67.45;102863.91;6312569;22;45331;-94
2022/01/24 09:07:03;;;;;;;;;55.25;45.25;;;;;3.90;67.86;102880.16;6313102;22;45247;-91
2022/01/24 09:09:36;;;;;;;;;47.00;40.25;;;;;4.05;67.45;102903.56;6310878;22;47054;-92
2022/01/24 09:12:06;;;;;;;;;48.25;40.00;;;;;4.02;67.93;102899.91;6311359;22;45326;-87
2022/01/24 09:14:32;;;;;;;;;56.00;46.00;;;;;4.06;67.61;102904.47;6309535;22;45195;-85
2022/01/24 09:16:57;;;;;;;;;49.25;41.25;;;;;4.05;67.54;102900.06;6304953;22;45184;-87
2022/01/24 09:19:23;;;;;;;;;56.25;43.50;;;;;4.04;67.40;102890.47;6312690;22;45308;-88
2022/01/24 09:21:50;;;;;;;;;49.75;44.00;;;;;4.17;67.74;102898.16;6309500;22;45437;-88
2022/01/24 09:24:16;;;;;;;;;53.75;40.25;;;;;4.18;67.79;102898.25;6282188;22;45335;-80
2022/01/24 09:26:42;;;;;;;;;53.00;43.50;;;;;4.32;67.93;102911.19;6281910;22;45453;-89
2022/01/24 09:29:08;;;;;;;;;46.75;40.00;;;;;4.30;67.88;102905.88;6305823;22;46928;-85
2022/01/24 09:31:34;;;;;;;;;48.25;39.75;;;;;4.27;67.53;102886.56;6310611;22;45282;-85
2022/01/24 09:33:59;;;;;;;;;52.75;42.25;;;;;4.34;67.71;102888.72;6309490;22;45246;-90
2022/01/24 09:36:25;;;;;;;;;51.50;39.00;;;;;4.33;67.83;102876.47;6285950;22;45236;-89
2022/01/24 09:38:51;;;;;;;;;56.25;43.00;;;;;4.42;67.34;102890.94;6309723;22;45204;-85
2022/01/24 09:41:16;;;;;;;;;50.50;40.75;;;;;4.61;67.25;102910.22;6312650;22;45330;-90
2022/01/24 09:43:43;;;;;;;;;50.75;42.75;;;;;4.58;67.42;102904.84;6289226;22;45402;-89
2022/01/24 09:46:09;;;;;;;;;54.00;39.75;;;;;4.58;67.48;102890.06;6286984;22;45169;-92
2022/01/24 09:48:38;;;;;;;;;60.50;45.50;;;;;4.58;67.01;102878.75;6315516;22;48240;-93
2022/01/24 09:51:10;;;;;;;;;56.50;42.75;;;;;4.75;66.88;102906.66;6286340;22;45290;-90
2022/01/24 09:53:37;;;;;;;;;57.25;46.00;;;;;4.78;67.10;102900.69;6283106;22;45404;-93
2022/01/24 09:56:06;;;;;;;;;54.50;42.75;;;;;4.71;67.02;102894.25;6313886;22;45393;-93
2022/01/24 09:58:40;;;;;;;;;48.00;39.00;;;;;4.78;67.17;102885.03;6309589;22;47005;-94
2022/01/24 10:01:07;;;;;;;;;55.00;44.00;;;;;5.04;66.86;102923.00;6315296;22;45133;-89
2022/01/24 10:03:33;;;;;;;;;62.50;48.50;;;;;4.94;66.63;102892.88;6284160;22;45200;-89
2022/01/24 10:05:59;;;;;;;;;56.00;42.00;;;;;5.16;66.83;102913.22;6314802;22;45380;-94
2022/01/24 10:08:26;;;;;;;;;52.75;41.50;;;;;5.25;66.76;102918.03;6311423;22;47261;-92
2022/01/24 10:11:16;;;;;;;;;54.00;42.75;;;;;5.23;66.43;102891.84;6289379;22;45189;-93
2022/01/24 10:16:33;;;;;;;;;54.75;43.50;;;;;5.47;66.14;102889.59;6309885;22;45195;-86
2022/01/24 10:19:17;;;;;;;;;52.00;40.25;;;;;5.67;66.08;102908.03;6309845;22;45479;-87
2022/01/24 10:21:45;;;;;;;;;43.50;38.00;;;;;5.60;66.03;102879.81;6312740;22;45278;-85
2022/01/24 10:24:30;;;;;;;;;51.75;41.50;;;;;5.90;65.53;102917.03;6309613;22;45259;-89
2022/01/24 10:27:19;;;;;;;;;55.50;43.25;;;;;6.04;65.56;102907.31;6310795;22;45624;-86
2022/01/24 10:29:58;;;;;;;;;53.25;41.25;;;;;6.17;65.38;102908.00;6311460;22;45773;-88
2022/01/24 10:32:36;;;;;;;;;52.75;43.25;;;;;6.29;64.97;102907.69;6292306;22;45225;-88
2022/01/24 10:35:20;;;;;;;;;50.50;41.25;;;;;6.45;64.65;102903.22;6312985;22;45239;-88
2022/01/24 10:37:49;;;;;;;;;51.00;39.75;;;;;6.49;64.61;102898.19;6310299;22;45233;-89
2022/01/24 10:40:52;;;;;;;;;50.00;41.00;;;;;6.66;64.33;102901.63;6311538;22;47539;-89
2022/01/24 10:43:24;;;;;;;;;60.25;43.75;;;;;6.79;64.16;102890.91;6285960;22;45693;-90
2022/01/24 10:45:52;;;;;;;;;44.00;40.00;;;;;6.73;63.90;102869.66;6312945;22;45256;-86
2022/01/24 10:48:32;;;;;;;;;49.75;41.00;;;;;6.98;63.01;102878.66;6311308;22;45208;-85
2022/01/24 10:51:18;;;;;;;;;53.00;41.50;;;;;7.11;63.44;102882.69;6292588;22;47044;-83
2022/01/24 10:53:52;;;;;;;;;49.00;41.25;;;;;7.14;63.00;102854.06;6313702;22;45750;-87
2022/01/24 10:56:30;;;;;;;;;49.50;39.75;;;;;7.38;63.04;102868.22;6284480;22;45281;-87
2022/01/24 10:59:03;;;;;;;;;51.25;40.25;;;;;7.36;62.08;102858.50;6284488;22;45852;-85
2022/01/24 11:01:29;;;;;;;;;51.25;39.75;;;;;7.43;62.05;102853.59;6284658;22;47092;-89
2022/01/24 11:04:00;;;;;;;;;52.50;40.00;;;;;7.54;62.01;102846.19;6313434;22;45988;-84
2022/01/24 11:06:48;;;;;;;;;53.75;39.75;;;;;7.60;61.40;102838.59;6310926;22;45382;-86
2022/01/24 11:09:22;;;;;;;;;49.25;40.25;;;;;7.87;61.04;102858.94;6318360;22;45751;-83
2022/01/24 11:11:57;;;;;;;;;53.25;40.25;;;;;7.95;60.96;102868.00;6293220;22;47230;-85
2022/01/24 11:14:25;;;;;;;;;48.75;39.25;;;;;7.83;60.81;102817.66;6321365;22;45169;-84
2022/01/24 11:16:52;;;;;;;;;45.75;38.25;;;;;8.14;60.54;102853.91;6324479;22;45208;-84
2022/01/24 11:19:27;;;;;;;;;46.75;38.25;;;;;8.26;59.94;102848.25;6324922;22;45288;-84
2022/01/24 11:21:56;;;;;;;;;45.25;39.25;;;;;8.25;59.77;102833.34;6319094;22;45170;-83
2022/01/24 11:24:29;;;;;;;;;51.25;38.50;;;;;8.45;59.58;102836.81;6322243;22;45395;-86
2022/01/24 11:26:55;;;;;;;;;50.50;38.50;;;;;8.66;59.56;102848.13;6299371;22;45128;-85
2022/01/24 11:29:21;;;;;;;;;47.00;38.00;;;;;8.74;59.31;102819.50;6299849;22;45935;-84
2022/01/24 11:32:11;;;;;;;;;42.25;36.25;;;;;9.04;58.11;102840.78;6325986;22;45087;-84
2022/01/24 11:34:39;;;;;;;;;43.75;38.50;;;;;9.09;58.19;102841.84;6311004;22;45207;-89
2022/01/24 11:37:06;;;;;;;;;52.00;38.00;;;;;9.05;57.51;102825.06;6285858;22;45523;-86
2022/01/24 11:39:33;;;;;;;;;40.25;35.00;;;;;9.30;57.27;102838.16;6291554;22;45301;-85
2022/01/24 11:42:01;;;;;;;;;45.25;36.00;;;;;9.40;57.32;102819.25;6283544;22;47159;-91
2022/01/24 11:44:46;;;;;;;;;40.75;34.00;;;;;9.69;56.83;102825.50;6285255;22;45522;-89
2022/01/24 11:47:24;;;;;;;;;31.50;21.25;;;;;9.87;56.40;102834.00;6322156;22;45188;-88
2022/01/24 11:49:54;;;;;;;;;41.50;35.75;;;;;9.89;56.14;102808.66;6313450;22;45433;-87
2022/01/24 11:52:29;;;;;;;;;43.50;36.50;;;;;10.19;56.16;102825.38;6306880;22;46298;-83
2022/01/24 11:57:47;;;;;;;;;39.25;35.00;;;;;10.35;55.07;102812.75;6316529;22;45171;-88
2022/01/24 12:00:26;;;;;;;;;33.25;29.75;;;;;10.49;54.82;102804.38;6311791;22;45330;-88
2022/01/24 12:02:56;;;;;;;;;35.50;32.00;;;;;10.83;54.24;102827.34;6287636;22;47001;-85
2022/01/24 12:05:41;;;;;;;;;31.00;28.75;;;;;11.04;54.11;102827.97;6285425;22;45765;-87
2022/01/24 12:08:12;;;;;;;;;38.50;32.75;;;;;11.11;53.71;102799.13;6314509;22;45314;-84
2022/01/24 12:10:42;;;;;;;;;41.75;35.75;;;;;11.19;52.01;102801.09;6287722;22;45727;-85
2022/01/24 12:13:25;;;;;;;;;44.25;36.25;;;;;11.35;52.51;102817.34;6307838;22;45596;-86
2022/01/24 12:16:01;;;;;;;;;38.25;35.25;;;;;11.61;52.14;102825.94;6309194;22;45190;-84
2022/01/24 12:18:27;;;;;;;;;36.50;33.25;;;;;11.86;52.32;102819.56;6306872;22;45445;-85
2022/01/24 12:21:03;;;;;;;;;38.00;34.75;;;;;12.09;51.75;102814.84;6280865;22;45461;-85
2022/01/24 12:23:38;;;;;;;;;48.75;39.00;;;;;12.23;51.44;102813.41;6306091;22;46526;-85
2022/01/24 12:26:09;;;;;;;;;39.50;34.75;;;;;12.36;50.79;102802.25;6282575;22;46061;-85
2022/01/24 12:28:41;;;;;;;;;49.50;37.50;;;;;12.73;50.70;102818.91;6309527;22;45416;-84
2022/01/24 12:31:11;;;;;;;;;41.50;34.00;;;;;13.08;50.40;102796.66;6282297;22;45297;-84
2022/01/24 12:33:38;;;;;;;;;40.50;36.00;;;;;13.55;49.57;102800.22;6309372;22;46394;-84
2022/01/24 12:36:10;;;;;;;;;35.25;33.00;;;;;14.03;48.97;102790.34;6280710;22;45355;-85
2022/01/24 12:38:43;;;;;;;;;34.50;30.50;;;;;14.62;48.34;102803.59;6281267;22;45362;-84
2022/01/24 12:41:26;;;;;;;;;40.00;35.25;;;;;15.07;47.54;102802.34;6308023;22;45489;-84
2022/01/24 12:44:12;;;;;;;;;40.00;34.75;;;;;15.39;46.37;102788.50;6281959;22;47941;-85
2022/01/24 12:46:38;;;;;;;;;37.75;33.50;;;;;15.61;45.92;102790.50;6279391;22;45355;-84
2022/01/24 12:49:07;;;;;;;;;33.75;32.25;;;;;15.85;45.09;102783.59;6309361;22;45449;-85
2022/01/24 12:51:37;;;;;;;;;33.25;30.75;;;;;16.15;45.26;102790.03;6279719;22;45503;-86
2022/01/24 12:54:06;;;;;;;;;40.75;34.25;;;;;16.26;44.84;102778.56;6280916;22;46107;-85
2022/01/24 12:56:33;;;;;;;;;38.50;31.50;;;;;16.48;44.11;102776.00;6305258;22;45350;-85
2022/01/24 12:58:59;;;;;;;;;35.50;33.00;;;;;16.68;43.70;102778.72;6309075;22;45326;-85
2022/01/24 13:01:27;;;;;;;;;31.25;30.25;;;;;16.78;42.87;102779.69;6279427;22;45676;-86
2022/01/24 13:04:02;;;;;;;;;37.50;32.50;;;;;16.70;42.39;102771.66;6280949;22;47152;-85
2022/01/24 13:06:35;;;;;;;;;35.00;32.75;;;;;16.90;42.86;102785.06;6306755;22;45282;-86
2022/01/24 13:09:25;;;;;;;;;38.00;33.50;;;;;16.96;42.38;102783.28;6306925;22;45362;-85
2022/01/24 13:11:55;;;;;;;;;38.75;32.50;;;;;17.08;41.93;102790.44;6278827;22;45725;-85
2022/01/24 13:14:37;;;;;;;;;31.50;26.25;;;;;17.21;41.58;102786.00;6279846;22;46787;-86
2022/01/24 13:25:09;;;;;;;;;43.75;35.00;;;;;17.68;40.93;102757.63;6308640;22;46153;-92